Time;durP1;ratioP1;P1;durP2;ratioP2;P2;SDS_P1;SDS_P2;PMS_P1;PMS_P2;Temp;Humidity;BMP_temperature;BMP_pressure;BME280_temperature;BME280_humidity;BME280_pressure;Samples;Min_cycle;Max_cycle;Signal;HPM_P1;HPM_P2
2023/11/13 00:02:13;;;;;;;;;;;21.60;41.80;;;;;;5116111;28;19972;-59
2023/11/13 00:04:40;;;;;;;;;;;21.60;41.80;;;;;;5116910;28;19931;-59
2023/11/13 00:07:07;;;;;;;;;;;21.60;41.80;;;;;;5116344;28;20368;-59
2023/11/13 00:09:35;;;;;;;;;;;21.60;41.80;;;;;;5117017;28;20010;-58
2023/11/13 00:12:03;;;;;;;;;;;21.60;41.80;;;;;;5116389;28;19924;-58
2023/11/13 00:14:30;;;;;;;;;;;21.60;41.90;;;;;;5115348;28;20022;-58
2023/11/13 00:16:57;;;;;;;;;;;21.60;41.90;;;;;;5116725;28;19931;-58
2023/11/13 00:19:24;;;;;;;;;;;21.60;41.90;;;;;;5116195;28;20368;-59
2023/11/13 00:21:52;;;;;;;;;;;21.60;41.90;;;;;;5116113;28;19979;-60
2023/11/13 00:24:19;;;;;;;;;;;21.60;41.90;;;;;;5116422;28;19931;-59
2023/11/13 00:26:47;;;;;;;;;;;21.60;41.90;;;;;;5116023;28;19923;-59
2023/11/13 00:29:15;;;;;;;;;;;21.60;42.00;;;;;;5116602;28;19924;-58
2023/11/13 00:31:42;;;;;;;;;;;21.60;42.00;;;;;;5115729;28;19969;-58
2023/11/13 00:34:10;;;;;;;;;;;21.60;41.90;;;;;;5098016;28;20018;-59
2023/11/13 00:36:37;;;;;;;;;;;21.60;41.90;;;;;;5116342;28;19969;-58
2023/11/13 00:39:04;;;;;;;;;;;21.60;41.90;;;;;;5116187;28;19966;-59
2023/11/13 00:41:33;;;;;;;;;;;21.60;41.80;;;;;;5116014;28;19981;-58
2023/11/13 00:44:02;;;;;;;;;;;21.60;41.90;;;;;;5116105;28;19966;-59
2023/11/13 00:46:29;;;;;;;;;;;21.60;41.90;;;;;;5115986;28;19980;-58
2023/11/13 00:48:56;;;;;;;;;;;21.60;41.80;;;;;;5115560;28;19924;-59
2023/11/13 00:51:23;;;;;;;;;;;21.60;41.80;;;;;;5115395;28;20295;-58
2023/11/13 00:53:50;;;;;;;;;;;21.60;41.80;;;;;;5115909;28;19924;-58
2023/11/13 00:56:17;;;;;;;;;;;21.60;41.80;;;;;;5115524;28;19930;-59
2023/11/13 00:58:45;;;;;;;;;;;21.60;41.80;;;;;;5115527;28;19924;-59
2023/11/13 01:01:14;;;;;;;;;;;21.60;41.80;;;;;;5115188;28;19928;-59
2023/11/13 01:03:42;;;;;;;;;;;21.60;41.80;;;;;;5115579;28;19928;-59
2023/11/13 01:06:14;;;;;;;;;;;21.60;41.80;;;;;;5115395;28;19924;-58
2023/11/13 01:08:41;;;;;;;;;;;21.60;41.80;;;;;;5115536;28;20265;-58
2023/11/13 01:11:07;;;;;;;;;;;21.60;41.80;;;;;;5115056;28;20023;-58
2023/11/13 01:13:36;;;;;;;;;;;21.60;41.80;;;;;;5115421;28;19976;-59
2023/11/13 01:16:04;;;;;;;;;;;21.60;41.80;;;;;;5115050;28;19974;-59
2023/11/13 01:18:31;;;;;;;;;;;21.60;41.90;;;;;;5115002;28;20022;-59
2023/11/13 01:20:58;;;;;;;;;;;21.60;41.90;;;;;;5115030;28;19924;-58
2023/11/13 01:23:25;;;;;;;;;;;21.60;41.90;;;;;;5115059;28;20014;-58
2023/11/13 01:25:53;;;;;;;;;;;21.60;41.90;;;;;;5114790;28;19924;-58
2023/11/13 01:28:20;;;;;;;;;;;21.60;41.90;;;;;;5115269;28;20404;-59
2023/11/13 01:30:47;;;;;;;;;;;21.60;41.90;;;;;;5115217;28;19924;-59
2023/11/13 01:33:14;;;;;;;;;;;21.60;41.90;;;;;;5114429;28;20406;-59
2023/11/13 01:35:41;;;;;;;;;;;21.60;41.90;;;;;;5114908;28;19931;-58
2023/11/13 01:38:08;;;;;;;;;;;21.60;41.90;;;;;;5115086;28;20022;-59
2023/11/13 01:40:38;;;;;;;;;;;21.60;41.90;;;;;;5115164;28;20393;-58
2023/11/13 01:43:05;;;;;;;;;;;21.60;41.90;;;;;;5114859;28;20355;-59
2023/11/13 01:45:33;;;;;;;;;;;21.60;41.90;;;;;;5115000;28;19931;-58
2023/11/13 01:48:00;;;;;;;;;;;21.60;41.90;;;;;;5114717;28;19924;-58
2023/11/13 01:50:27;;;;;;;;;;;21.60;41.90;;;;;;5114459;28;19977;-59
2023/11/13 01:52:54;;;;;;;;;;;21.60;41.90;;;;;;5114604;28;19928;-59
2023/11/13 01:55:21;;;;;;;;;;;21.60;41.90;;;;;;5114676;28;19951;-59
2023/11/13 01:57:48;;;;;;;;;;;21.60;41.90;;;;;;5114996;28;20310;-59
2023/11/13 02:00:16;;;;;;;;;;;21.60;41.90;;;;;;5114756;28;19924;-58
2023/11/13 02:02:43;;;;;;;;;;;21.60;41.90;;;;;;5114701;28;19932;-58
2023/11/13 02:05:10;;;;;;;;;;;21.60;41.90;;;;;;5114519;28;19983;-59
2023/11/13 02:07:39;;;;;;;;;;;21.60;42.00;;;;;;5114159;28;19963;-58
2023/11/13 02:10:07;;;;;;;;;;;21.60;42.00;;;;;;5114458;28;19924;-58
2023/11/13 02:12:34;;;;;;;;;;;21.50;41.90;;;;;;5096105;28;20310;-58
2023/11/13 02:15:02;;;;;;;;;;;21.60;42.00;;;;;;5113929;28;20018;-58
2023/11/13 02:17:29;;;;;;;;;;;21.60;42.00;;;;;;5096508;28;19967;-58
2023/11/13 02:19:56;;;;;;;;;;;21.60;42.00;;;;;;5114331;28;19924;-58
2023/11/13 02:22:23;;;;;;;;;;;21.60;41.90;;;;;;5114706;28;19931;-59
2023/11/13 02:24:50;;;;;;;;;;;21.60;41.90;;;;;;5114409;28;19953;-58
2023/11/13 02:27:18;;;;;;;;;;;21.60;41.90;;;;;;5095751;28;20001;-59
2023/11/13 02:29:45;;;;;;;;;;;21.50;41.90;;;;;;5130098;27;20342;-58
2023/11/13 02:32:12;;;;;;;;;;;21.60;41.90;;;;;;5114078;28;19932;-60
2023/11/13 02:34:39;;;;;;;;;;;21.60;41.90;;;;;;5114145;28;19923;-59
2023/11/13 02:37:06;;;;;;;;;;;21.60;41.90;;;;;;5115267;28;19978;-58
2023/11/13 02:39:34;;;;;;;;;;;21.60;41.90;;;;;;5120953;28;19931;-59
2023/11/13 02:42:01;;;;;;;;;;;21.60;41.90;;;;;;5094679;28;19924;-58
2023/11/13 02:44:27;;;;;;;;;;;21.60;41.90;;;;;;5120739;28;19931;-59
2023/11/13 02:46:56;;;;;;;;;;;21.60;41.90;;;;;;5120828;28;20279;-58
2023/11/13 02:49:23;;;;;;;;;;;21.60;41.90;;;;;;5120861;28;20026;-59
2023/11/13 02:51:50;;;;;;;;;;;21.60;41.90;;;;;;5120867;28;19954;-58
2023/11/13 02:54:19;;;;;;;;;;;21.60;41.90;;;;;;5120501;28;20390;-59
2023/11/13 02:56:46;;;;;;;;;;;21.60;41.90;;;;;;5120482;28;19924;-59
2023/11/13 02:59:14;;;;;;;;;;;21.60;41.90;;;;;;5120811;28;19963;-58
2023/11/13 03:01:41;;;;;;;;;;;21.60;41.90;;;;;;5120706;28;19924;-59
2023/11/13 03:04:09;;;;;;;;;;;21.60;41.90;;;;;;5102519;28;19982;-58
2023/11/13 03:06:37;;;;;;;;;;;21.60;41.90;;;;;;5120636;28;19924;-59
2023/11/13 03:09:04;;;;;;;;;;;21.60;41.90;;;;;;5120531;28;19928;-58
2023/11/13 03:11:31;;;;;;;;;;;21.60;41.90;;;;;;5120679;28;19931;-58
2023/11/13 03:13:59;;;;;;;;;;;21.60;41.90;;;;;;5120273;28;19968;-59
2023/11/13 03:16:26;;;;;;;;;;;21.60;41.90;;;;;;5136233;27;19978;-59
2023/11/13 03:18:52;;;;;;;;;;;21.60;41.90;;;;;;5120289;28;19927;-63
2023/11/13 03:21:20;;;;;;;;;;;21.60;41.90;;;;;;5120324;28;20285;-66
2023/11/13 03:23:46;;;;;;;;;;;21.50;41.90;;;;;;5120546;28;20014;-62
2023/11/13 03:26:18;;;;;;;;;;;21.60;42.00;;;;;;5134992;27;20244;-62
2023/11/13 03:28:46;;;;;;;;;;;21.60;42.00;;;;;;5120495;28;19962;-60
2023/11/13 03:31:13;;;;;;;;;;;21.50;41.90;;;;;;5120311;28;19928;-62
2023/11/13 03:33:40;;;;;;;;;;;21.60;42.00;;;;;;5120560;28;19931;-63
2023/11/13 03:36:07;;;;;;;;;;;21.60;41.90;;;;;;5120110;28;20383;-65
2023/11/13 03:38:34;;;;;;;;;;;21.60;42.00;;;;;;5120470;28;20019;-60
2023/11/13 03:41:02;;;;;;;;;;;21.50;42.00;;;;;;5120460;28;19927;-64
2023/11/13 03:43:30;;;;;;;;;;;21.50;42.00;;;;;;5120126;28;19969;-62
2023/11/13 03:45:57;;;;;;;;;;;21.50;42.00;;;;;;5120270;28;20011;-60
2023/11/13 03:48:24;;;;;;;;;;;21.50;42.00;;;;;;5101010;28;19924;-60
2023/11/13 03:50:50;;;;;;;;;;;21.50;42.00;;;;;;5116241;28;19924;-61
2023/11/13 03:53:19;;;;;;;;;;;21.50;42.00;;;;;;5116657;28;20283;-61
2023/11/13 03:55:46;;;;;;;;;;;21.50;42.00;;;;;;5116870;28;20295;-59
2023/11/13 03:58:13;;;;;;;;;;;21.50;42.00;;;;;;5117017;28;20387;-62
2023/11/13 04:00:40;;;;;;;;;;;21.50;42.00;;;;;;5098632;28;20375;-62
2023/11/13 04:03:07;;;;;;;;;;;21.50;41.90;;;;;;5117055;28;19930;-59
2023/11/13 04:05:34;;;;;;;;;;;21.50;41.90;;;;;;5116892;28;19924;-59
2023/11/13 04:08:01;;;;;;;;;;;21.50;41.90;;;;;;5117028;28;19924;-59
2023/11/13 04:10:30;;;;;;;;;;;21.50;41.90;;;;;;5116778;28;20320;-61
2023/11/13 04:12:57;;;;;;;;;;;21.50;41.90;;;;;;5116566;28;19971;-59
2023/11/13 04:15:24;;;;;;;;;;;21.50;41.90;;;;;;5116467;28;20007;-59
2023/11/13 04:17:51;;;;;;;;;;;21.50;41.90;;;;;;5116663;28;19974;-59
2023/11/13 04:20:21;;;;;;;;;;;21.50;41.90;;;;;;5116783;28;19974;-59
2023/11/13 04:22:54;;;;;;;;;;;21.50;41.90;;;;;;5116344;28;19928;-59
2023/11/13 04:25:21;;;;;;;;;;;21.50;41.90;;;;;;5116444;28;19923;-59
2023/11/13 04:27:49;;;;;;;;;;;21.50;42.00;;;;;;5115887;28;19955;-59
2023/11/13 04:30:16;;;;;;;;;;;21.50;42.00;;;;;;5116302;28;19927;-59
2023/11/13 04:32:42;;;;;;;;;;;21.50;42.00;;;;;;5116193;28;19924;-59
2023/11/13 04:35:11;;;;;;;;;;;21.50;42.00;;;;;;5115910;28;19938;-59
2023/11/13 04:37:38;;;;;;;;;;;21.50;42.00;;;;;;5116068;28;20023;-59
2023/11/13 04:40:05;;;;;;;;;;;21.50;41.90;;;;;;5115994;28;20355;-59
2023/11/13 04:42:32;;;;;;;;;;;21.50;41.80;;;;;;5115119;28;19930;-59
2023/11/13 04:44:59;;;;;;;;;;;21.60;41.70;;;;;;5116078;28;19970;-59
2023/11/13 04:47:26;;;;;;;;;;;21.60;41.60;;;;;;5116149;28;19970;-59
2023/11/13 04:49:53;;;;;;;;;;;21.60;41.40;;;;;;5097471;28;20273;-59
2023/11/13 04:52:20;;;;;;;;;;;21.60;41.30;;;;;;5110972;28;19923;-59
2023/11/13 04:54:47;;;;;;;;;;;21.60;41.20;;;;;;5103428;28;19970;-59
2023/11/13 04:57:14;;;;;;;;;;;21.60;41.10;;;;;;5114832;28;20014;-59
2023/11/13 04:59:41;;;;;;;;;;;21.60;41.20;;;;;;5113115;28;19932;-60
2023/11/13 05:02:09;;;;;;;;;;;21.60;41.20;;;;;;5107895;28;19924;-59
2023/11/13 05:04:36;;;;;;;;;;;21.60;41.30;;;;;;5110743;28;19923;-58
2023/11/13 05:07:03;;;;;;;;;;;21.60;41.40;;;;;;5106022;28;19927;-58
2023/11/13 05:09:30;;;;;;;;;;;21.50;41.30;;;;;;5108275;28;20018;-58
2023/11/13 05:11:57;;;;;;;;;;;21.50;41.40;;;;;;5115212;27;19924;-58
2023/11/13 05:14:24;;;;;;;;;;;21.50;41.40;;;;;;5115053;28;19977;-58
2023/11/13 05:16:54;;;;;;;;;;;21.50;41.40;;;;;;5115362;28;19962;-58
2023/11/13 05:19:22;;;;;;;;;;;21.50;41.30;;;;;;5114704;28;20337;-58
2023/11/13 05:21:49;;;;;;;;;;;21.50;41.80;;;;;;5115006;28;20372;-60
2023/11/13 05:24:16;;;;;;;;;;;21.50;41.20;;;;;;5112926;28;19978;-59
2023/11/13 05:26:43;;;;;;;;;;;21.50;41.20;;;;;;5113450;27;20429;-60
2023/11/13 05:29:10;;;;;;;;;;;21.60;41.20;;;;;;5135384;27;19976;-60
2023/11/13 05:31:37;;;;;;;;;;;21.60;41.10;;;;;;5135348;27;20017;-63
2023/11/13 05:34:04;;;;;;;;;;;21.60;41.10;;;;;;5135453;27;19934;-63
2023/11/13 05:36:31;;;;;;;;;;;21.50;41.10;;;;;;5135632;27;19923;-60
2023/11/13 05:38:58;;;;;;;;;;;21.60;41.10;;;;;;5118033;27;19932;-64
2023/11/13 05:41:25;;;;;;;;;;;21.60;41.00;;;;;;5124053;27;19966;-66
2023/11/13 05:43:54;;;;;;;;;;;21.60;41.00;;;;;;5112846;28;20359;-60
2023/11/13 05:46:21;;;;;;;;;;;21.60;40.90;;;;;;5105184;27;19923;-59
2023/11/13 05:48:48;;;;;;;;;;;21.60;40.90;;;;;;5104022;28;19970;-62
2023/11/13 05:51:18;;;;;;;;;;;21.60;40.90;;;;;;5105063;28;19928;-60
2023/11/13 05:53:45;;;;;;;;;;;21.60;40.80;;;;;;5103704;28;19947;-61
2023/11/13 05:56:12;;;;;;;;;;;21.60;40.80;;;;;;5110867;28;19964;-60
2023/11/13 05:58:39;;;;;;;;;;;21.60;40.70;;;;;;5104547;28;20324;-60
2023/11/13 06:01:06;;;;;;;;;;;21.60;40.70;;;;;;5104115;28;19924;-60
2023/11/13 06:03:33;;;;;;;;;;;21.70;40.70;;;;;;5113814;28;20273;-60
2023/11/13 06:06:00;;;;;;;;;;;21.60;40.70;;;;;;5112904;28;20390;-57
2023/11/13 06:08:27;;;;;;;;;;;21.70;40.70;;;;;;5094865;28;20282;-58
2023/11/13 06:10:54;;;;;;;;;;;21.70;40.70;;;;;;5086800;28;19971;-58
2023/11/13 06:13:21;;;;;;;;;;;21.70;40.60;;;;;;5088958;28;19977;-59
2023/11/13 06:15:48;;;;;;;;;;;21.70;40.60;;;;;;5109876;28;19924;-60
2023/11/13 06:18:16;;;;;;;;;;;21.70;40.60;;;;;;5092124;28;19923;-60
2023/11/13 06:20:44;;;;;;;;;;;21.70;40.60;;;;;;5085700;28;20015;-58
2023/11/13 06:23:12;;;;;;;;;;;21.70;40.90;;;;;;5106821;28;20376;-60
2023/11/13 06:25:39;;;;;;;;;;;21.70;41.30;;;;;;5107682;28;19927;-59
2023/11/13 06:28:08;;;;;;;;;;;21.70;41.60;;;;;;5085314;28;19932;-61
2023/11/13 06:30:36;;;;;;;;;;;21.70;41.80;;;;;;5104034;28;19946;-60
2023/11/13 06:33:03;;;;;;;;;;;21.80;42.00;;;;;;5101418;28;20370;-59
2023/11/13 06:35:32;;;;;;;;;;;21.80;42.60;;;;;;5105748;28;19930;-60
2023/11/13 06:37:59;;;;;;;;;;;21.80;42.60;;;;;;5099584;28;20009;-59
2023/11/13 06:40:27;;;;;;;;;;;21.90;42.70;;;;;;5102286;28;20299;-60
2023/11/13 06:42:54;;;;;;;;;;;22.00;42.80;;;;;;5105400;28;19942;-62
2023/11/13 06:45:30;;;;;;;;;;;22.00;42.60;;;;;;5104181;28;19927;-62
2023/11/13 06:47:58;;;;;;;;;;;22.00;42.50;;;;;;5089198;28;20014;-63
2023/11/13 06:50:28;;;;;;;;;;;22.10;42.50;;;;;;5100233;28;19959;-63
2023/11/13 06:52:55;;;;;;;;;;;22.20;42.60;;;;;;5102752;28;20364;-62
2023/11/13 06:55:22;;;;;;;;;;;22.20;42.50;;;;;;5104296;28;19928;-61
2023/11/13 06:57:50;;;;;;;;;;;22.20;42.40;;;;;;5100511;28;19924;-58
2023/11/13 07:00:17;;;;;;;;;;;22.30;42.20;;;;;;5097559;28;19932;-62
2023/11/13 07:02:47;;;;;;;;;;;22.30;42.10;;;;;;5102807;28;20281;-62
2023/11/13 07:05:15;;;;;;;;;;;22.40;41.90;;;;;;5087534;28;19938;-60
2023/11/13 07:07:42;;;;;;;;;;;22.40;41.90;;;;;;5088570;28;19994;-63
2023/11/13 07:10:12;;;;;;;;;;;22.40;41.90;;;;;;5093970;28;19924;-60
2023/11/13 07:12:40;;;;;;;;;;;22.40;41.90;;;;;;5105841;28;19965;-60
2023/11/13 07:15:08;;;;;;;;;;;22.40;41.90;;;;;;5099095;28;20023;-61
2023/11/13 07:17:36;;;;;;;;;;;22.40;41.90;;;;;;5104062;28;20479;-60
2023/11/13 07:20:06;;;;;;;;;;;22.50;41.70;;;;;;5097047;28;19939;-62
2023/11/13 07:22:33;;;;;;;;;;;22.50;41.60;;;;;;5068152;28;20376;-65
2023/11/13 07:25:00;;;;;;;;;;;22.50;41.40;;;;;;5092580;27;20439;-61
2023/11/13 07:27:27;;;;;;;;;;;22.50;41.60;;;;;;5106381;27;20375;-60
2023/11/13 07:29:56;;;;;;;;;;;22.50;41.80;;;;;;5087216;28;19963;-59
2023/11/13 07:32:27;;;;;;;;;;;22.60;42.00;;;;;;5100319;28;20441;-59
2023/11/13 07:34:54;;;;;;;;;;;22.60;42.00;;;;;;5097849;27;19931;-61
2023/11/13 07:37:22;;;;;;;;;;;22.70;42.20;;;;;;5099808;27;20385;-60
2023/11/13 07:39:50;;;;;;;;;;;22.70;42.20;;;;;;5107415;27;19967;-60
2023/11/13 07:42:18;;;;;;;;;;;22.70;42.00;;;;;;5111022;27;19932;-62
2023/11/13 07:44:52;;;;;;;;;;;22.80;41.80;;;;;;5095635;27;21519;-62
2023/11/13 07:47:19;;;;;;;;;;;22.80;41.70;;;;;;5101507;27;19993;-60
2023/11/13 07:49:46;;;;;;;;;;;22.90;41.80;;;;;;5104242;27;19932;-61
2023/11/13 07:52:13;;;;;;;;;;;22.90;41.80;;;;;;5100276;28;20383;-62
2023/11/13 07:54:41;;;;;;;;;;;23.00;41.80;;;;;;5098014;27;20370;-61
2023/11/13 07:57:08;;;;;;;;;;;23.00;41.80;;;;;;5103273;27;19982;-62
2023/11/13 07:59:36;;;;;;;;;;;23.10;41.70;;;;;;5105857;27;19943;-60
2023/11/13 08:02:03;;;;;;;;;;;23.10;41.70;;;;;;5104532;27;19966;-60
2023/11/13 08:04:31;;;;;;;;;;;23.10;41.60;;;;;;5103529;27;19935;-61
2023/11/13 08:06:59;;;;;;;;;;;23.20;41.60;;;;;;5102585;27;20417;-60
2023/11/13 08:09:40;;;;;;;;;;;23.20;41.40;;;;;;5106819;27;20303;-59
2023/11/13 08:12:07;;;;;;;;;;;23.20;41.60;;;;;;5101936;27;19924;-61
2023/11/13 08:14:34;;;;;;;;;;;23.20;41.70;;;;;;5104629;27;19940;-60
2023/11/13 08:17:05;;;;;;;;;;;23.30;41.80;;;;;;5100280;27;19936;-60
2023/11/13 08:19:32;;;;;;;;;;;23.30;41.90;;;;;;5106559;27;19946;-61
2023/11/13 08:22:00;;;;;;;;;;;23.40;42.00;;;;;;5104192;27;20629;-61
2023/11/13 08:24:28;;;;;;;;;;;23.40;41.60;;;;;;5104138;27;19923;-59
2023/11/13 08:26:56;;;;;;;;;;;23.40;41.70;;;;;;5103055;27;20008;-60
2023/11/13 08:29:25;;;;;;;;;;;23.50;41.70;;;;;;5107631;27;20014;-61
2023/11/13 08:31:52;;;;;;;;;;;23.60;41.80;;;;;;5104364;27;19927;-60
2023/11/13 08:34:21;;;;;;;;;;;23.60;41.80;;;;;;5087218;28;19931;-60
2023/11/13 08:36:48;;;;;;;;;;;23.60;41.70;;;;;;5102729;27;19932;-60
2023/11/13 08:39:17;;;;;;;;;;;23.60;41.50;;;;;;5102819;28;19942;-61
2023/11/13 08:41:44;;;;;;;;;;;23.70;41.50;;;;;;5102219;27;19924;-62
2023/11/13 08:44:11;;;;;;;;;;;23.70;41.50;;;;;;5105524;27;19932;-60
2023/11/13 08:46:38;;;;;;;;;;;23.70;41.30;;;;;;5104170;27;19932;-62
2023/11/13 08:49:08;;;;;;;;;;;23.70;41.30;;;;;;5104032;27;20351;-62
2023/11/13 08:51:38;;;;;;;;;;;23.70;41.30;;;;;;5097971;27;19928;-61
2023/11/13 08:54:05;;;;;;;;;;;23.80;41.40;;;;;;5106825;27;19936;-60
2023/11/13 08:56:32;;;;;;;;;;;23.80;41.20;;;;;;5102427;27;19928;-64
2023/11/13 08:59:00;;;;;;;;;;;23.80;41.20;;;;;;5101864;27;19963;-61
2023/11/13 09:01:27;;;;;;;;;;;23.90;41.30;;;;;;5102036;27;20380;-62
2023/11/13 09:03:58;;;;;;;;;;;23.90;41.40;;;;;;5101541;27;20231;-59
2023/11/13 09:06:25;;;;;;;;;;;23.90;41.40;;;;;;5101426;27;19989;-60
2023/11/13 09:08:53;;;;;;;;;;;23.90;41.30;;;;;;5105049;27;19951;-60
2023/11/13 09:11:22;;;;;;;;;;;24.00;41.30;;;;;;5105172;27;19953;-61
2023/11/13 09:13:49;;;;;;;;;;;24.10;41.20;;;;;;5094893;28;19963;-61
2023/11/13 09:16:19;;;;;;;;;;;24.10;41.20;;;;;;5086650;27;19932;-62
2023/11/13 09:18:48;;;;;;;;;;;24.10;41.00;;;;;;5098478;27;20342;-61
2023/11/13 09:21:17;;;;;;;;;;;24.10;41.40;;;;;;5099622;27;19928;-62
2023/11/13 09:23:45;;;;;;;;;;;24.10;40.80;;;;;;5098912;28;20018;-62
2023/11/13 09:26:13;;;;;;;;;;;24.10;40.60;;;;;;5105687;27;19924;-62
2023/11/13 09:28:40;;;;;;;;;;;24.20;40.50;;;;;;5105914;27;20010;-62
2023/11/13 09:31:10;;;;;;;;;;;24.20;40.50;;;;;;5106842;27;19957;-62
2023/11/13 09:33:45;;;;;;;;;;;24.20;40.30;;;;;;5102728;27;20283;-62
2023/11/13 09:36:12;;;;;;;;;;;24.30;40.00;;;;;;5103900;28;19932;-62
2023/11/13 09:38:39;;;;;;;;;;;24.30;40.00;;;;;;5088121;28;20353;-62
2023/11/13 09:41:07;;;;;;;;;;;24.30;39.90;;;;;;5106690;28;19973;-62
2023/11/13 09:43:36;;;;;;;;;;;24.40;39.90;;;;;;5108430;27;19932;-62
2023/11/13 09:46:06;;;;;;;;;;;24.50;39.90;;;;;;5098823;27;19923;-61
2023/11/13 09:48:50;;;;;;;;;;;24.50;39.80;;;;;;5103098;28;19932;-60
2023/11/13 09:51:17;;;;;;;;;;;24.50;39.70;;;;;;5094195;27;19938;-61
2023/11/13 09:53:56;;;;;;;;;;;24.50;39.50;;;;;;5102719;27;19932;-63
2023/11/13 09:56:23;;;;;;;;;;;24.60;39.50;;;;;;5105201;27;19974;-64
2023/11/13 09:58:52;;;;;;;;;;;24.60;39.50;;;;;;5102394;27;19971;-64
2023/11/13 10:01:20;;;;;;;;;;;24.60;39.60;;;;;;5103725;28;20276;-63
2023/11/13 10:03:48;;;;;;;;;;;24.60;39.50;;;;;;5103718;27;20398;-62
2023/11/13 10:06:16;;;;;;;;;;;24.60;39.40;;;;;;5099702;27;20010;-62
2023/11/13 10:08:44;;;;;;;;;;;24.60;39.40;;;;;;5092110;28;19932;-62
2023/11/13 10:11:12;;;;;;;;;;;24.60;39.20;;;;;;5100937;27;19927;-55
2023/11/13 10:13:39;;;;;;;;;;;24.70;39.20;;;;;;5107194;27;20448;-62
2023/11/13 10:16:18;;;;;;;;;;;24.60;39.00;;;;;;5102078;27;20398;-61
2023/11/13 10:18:47;;;;;;;;;;;24.60;39.10;;;;;;5087702;28;20034;-61
2023/11/13 10:21:35;;;;;;;;;;;24.60;39.00;;;;;;5104637;27;20371;-63
2023/11/13 10:24:14;;;;;;;;;;;24.60;38.90;;;;;;5105874;28;19951;-60
2023/11/13 10:26:51;;;;;;;;;;;24.60;38.90;;;;;;5104879;27;20388;-60
2023/11/13 10:29:25;;;;;;;;;;;24.60;38.90;;;;;;5100031;28;19924;-63
2023/11/13 10:31:56;;;;;;;;;;;24.60;39.00;;;;;;5103384;28;19973;-61
2023/11/13 10:34:23;;;;;;;;;;;24.60;38.90;;;;;;5102218;28;20372;-62
2023/11/13 10:37:11;;;;;;;;;;;24.60;38.90;;;;;;5083316;28;20006;-61
2023/11/13 10:39:42;;;;;;;;;;;24.60;38.80;;;;;;5101552;28;19924;-62
2023/11/13 10:42:26;;;;;;;;;;;24.60;38.90;;;;;;5105917;28;19971;-63
2023/11/13 10:44:54;;;;;;;;;;;24.60;38.80;;;;;;5110601;28;19931;-62
2023/11/13 10:47:24;;;;;;;;;;;24.60;38.60;;;;;;5106808;28;20375;-62
2023/11/13 10:49:53;;;;;;;;;;;24.60;38.60;;;;;;5103164;28;19927;-63
2023/11/13 10:52:23;;;;;;;;;;;24.70;38.50;;;;;;5103482;28;20391;-61
2023/11/13 10:54:50;;;;;;;;;;;24.70;38.50;;;;;;5105438;28;21314;-63
2023/11/13 10:57:19;;;;;;;;;;;24.70;38.40;;;;;;5105597;28;19928;-62
2023/11/13 10:59:49;;;;;;;;;;;24.70;38.40;;;;;;5098560;28;19939;-63
2023/11/13 11:02:33;;;;;;;;;;;24.70;38.50;;;;;;5090047;28;19938;-60
2023/11/13 11:05:02;;;;;;;;;;;24.70;39.10;;;;;;5114108;27;20364;-60
2023/11/13 11:07:31;;;;;;;;;;;24.70;38.60;;;;;;5090619;28;20014;-61
2023/11/13 11:10:00;;;;;;;;;;;24.70;38.60;;;;;;5095453;28;20368;-62
2023/11/13 11:12:32;;;;;;;;;;;24.70;38.60;;;;;;5101417;27;19927;-61
2023/11/13 11:15:08;;;;;;;;;;;24.70;38.60;;;;;;5107424;27;20386;-64
2023/11/13 11:17:37;;;;;;;;;;;24.70;38.60;;;;;;5106919;27;19932;-59
2023/11/13 11:20:08;;;;;;;;;;;24.80;38.80;;;;;;5110201;27;19924;-60
2023/11/13 11:22:42;;;;;;;;;;;24.80;38.80;;;;;;5110916;27;19938;-61
2023/11/13 11:25:23;;;;;;;;;;;24.80;38.90;;;;;;5109316;27;19928;-60
2023/11/13 11:27:50;;;;;;;;;;;24.80;39.00;;;;;;5110127;27;19932;-61
2023/11/13 11:30:36;;;;;;;;;;;24.90;39.10;;;;;;5091656;28;19978;-61
2023/11/13 11:33:09;;;;;;;;;;;24.90;39.00;;;;;;5108971;27;19923;-59
2023/11/13 11:35:37;;;;;;;;;;;24.90;39.00;;;;;;5107423;27;20339;-60
2023/11/13 11:38:19;;;;;;;;;;;24.90;39.00;;;;;;5104337;27;19928;-59
2023/11/13 11:40:48;;;;;;;;;;;24.90;39.00;;;;;;5109268;27;19930;-61
2023/11/13 11:43:28;;;;;;;;;;;24.90;39.00;;;;;;5103367;27;20064;-61
2023/11/13 11:45:56;;;;;;;;;;;24.90;39.00;;;;;;5107140;27;20394;-59
2023/11/13 11:48:24;;;;;;;;;;;24.90;39.00;;;;;;5106083;27;19931;-59
2023/11/13 11:50:54;;;;;;;;;;;25.00;39.10;;;;;;5110686;27;19946;-61
2023/11/13 11:53:28;;;;;;;;;;;25.00;39.10;;;;;;5087033;28;19924;-63
2023/11/13 11:55:58;;;;;;;;;;;25.00;39.10;;;;;;5107887;27;20454;-61
2023/11/13 11:58:27;;;;;;;;;;;25.00;39.00;;;;;;5088167;27;19939;-61
2023/11/13 12:00:55;;;;;;;;;;;25.00;38.90;;;;;;5100642;27;19972;-59
2023/11/13 12:03:24;;;;;;;;;;;25.10;38.80;;;;;;5101914;27;19939;-60
2023/11/13 12:05:51;;;;;;;;;;;25.10;38.70;;;;;;5107527;27;19931;-59
2023/11/13 12:08:20;;;;;;;;;;;25.10;38.60;;;;;;5105357;27;19931;-58
2023/11/13 12:10:48;;;;;;;;;;;25.10;38.60;;;;;;5104991;27;19931;-58
2023/11/13 12:13:17;;;;;;;;;;;25.20;38.60;;;;;;5105403;27;20050;-58
2023/11/13 12:15:45;;;;;;;;;;;25.20;38.70;;;;;;5104196;27;19927;-58
2023/11/13 12:18:13;;;;;;;;;;;25.20;38.60;;;;;;5102772;27;19950;-58
2023/11/13 12:20:40;;;;;;;;;;;25.20;38.50;;;;;;5097480;27;19932;-59
2023/11/13 12:23:12;;;;;;;;;;;25.20;38.40;;;;;;5106051;27;20026;-59
2023/11/13 12:25:39;;;;;;;;;;;25.30;38.50;;;;;;5109102;27;19959;-59
2023/11/13 12:28:08;;;;;;;;;;;25.30;38.40;;;;;;5107145;27;19927;-59
2023/11/13 12:30:35;;;;;;;;;;;25.30;38.40;;;;;;5106819;27;19950;-61
2023/11/13 12:33:03;;;;;;;;;;;25.30;38.40;;;;;;5100632;27;19935;-60
2023/11/13 12:35:35;;;;;;;;;;;25.30;38.30;;;;;;5083851;28;20424;-60
2023/11/13 12:38:04;;;;;;;;;;;25.20;38.20;;;;;;5104004;27;19931;-60
2023/11/13 12:40:34;;;;;;;;;;;25.30;38.30;;;;;;5106516;27;19931;-59
2023/11/13 12:43:03;;;;;;;;;;;25.20;38.40;;;;;;5080498;28;19934;-58
2023/11/13 12:45:31;;;;;;;;;;;25.20;38.20;;;;;;5103317;27;20392;-60
2023/11/13 12:48:01;;;;;;;;;;;25.20;38.30;;;;;;5104590;27;21917;-58
2023/11/13 12:50:28;;;;;;;;;;;25.20;38.20;;;;;;5103224;27;19981;-61
2023/11/13 12:52:56;;;;;;;;;;;25.20;38.10;;;;;;5100103;27;19944;-59
2023/11/13 12:55:27;;;;;;;;;;;25.20;38.00;;;;;;5101703;27;20299;-59
2023/11/13 12:57:55;;;;;;;;;;;25.20;37.90;;;;;;5102134;27;19924;-59
2023/11/13 13:00:22;;;;;;;;;;;25.20;37.90;;;;;;5106497;27;20460;-58
2023/11/13 13:02:52;;;;;;;;;;;25.10;37.80;;;;;;5108459;27;20010;-60
2023/11/13 13:05:23;;;;;;;;;;;25.10;37.80;;;;;;5077790;27;19932;-55
2023/11/13 13:08:01;;;;;;;;;;;25.10;37.70;;;;;;5101424;27;21098;-60
2023/11/13 13:10:33;;;;;;;;;;;25.10;37.70;;;;;;5106325;27;20252;-61
2023/11/13 13:13:04;;;;;;;;;;;25.10;37.70;;;;;;5108126;27;19927;-60
2023/11/13 13:15:33;;;;;;;;;;;25.10;37.80;;;;;;5104107;27;19931;-60
2023/11/13 13:18:02;;;;;;;;;;;25.10;37.80;;;;;;5105481;27;19942;-60
2023/11/13 13:20:31;;;;;;;;;;;25.10;37.80;;;;;;5110750;27;19924;-59
2023/11/13 13:22:59;;;;;;;;;;;25.00;37.80;;;;;;5087616;27;19956;-64
2023/11/13 13:25:29;;;;;;;;;;;25.00;37.80;;;;;;5107723;27;19931;-61
2023/11/13 13:27:57;;;;;;;;;;;25.00;37.90;;;;;;5109513;27;20417;-60
2023/11/13 13:30:26;;;;;;;;;;;25.00;37.90;;;;;;5106012;27;19932;-60
2023/11/13 13:32:53;;;;;;;;;;;24.90;37.90;;;;;;5071111;28;20338;-62
2023/11/13 13:35:20;;;;;;;;;;;24.90;37.90;;;;;;5104022;28;19933;-61
2023/11/13 13:37:47;;;;;;;;;;;24.90;38.00;;;;;;5102563;27;19927;-57
2023/11/13 13:40:17;;;;;;;;;;;24.80;38.00;;;;;;5112212;27;19924;-65
2023/11/13 13:42:44;;;;;;;;;;;24.80;38.10;;;;;;5099582;27;20416;-62
2023/11/13 13:45:18;;;;;;;;;;;24.80;38.20;;;;;;5104946;27;19930;-59
2023/11/13 13:47:46;;;;;;;;;;;24.80;38.40;;;;;;5102249;27;19928;-60
2023/11/13 13:50:16;;;;;;;;;;;24.80;38.50;;;;;;5102781;27;20022;-60
2023/11/13 13:52:47;;;;;;;;;;;24.80;38.70;;;;;;5105177;27;19961;-61
2023/11/13 13:55:15;;;;;;;;;;;24.70;38.60;;;;;;5113159;27;20342;-61
2023/11/13 13:57:44;;;;;;;;;;;24.70;38.50;;;;;;5104271;27;19935;-63
2023/11/13 14:00:17;;;;;;;;;;;24.70;38.80;;;;;;5104933;27;19959;-60
2023/11/13 14:03:01;;;;;;;;;;;24.70;38.60;;;;;;5101880;27;19924;-60
2023/11/13 14:05:28;;;;;;;;;;;24.70;38.60;;;;;;5106108;28;19927;-63
2023/11/13 14:07:56;;;;;;;;;;;24.70;38.60;;;;;;5109232;27;20346;-63
2023/11/13 14:10:24;;;;;;;;;;;24.70;38.60;;;;;;5112649;27;19923;-62
2023/11/13 14:12:51;;;;;;;;;;;24.60;38.60;;;;;;5105339;28;19977;-62
2023/11/13 14:15:19;;;;;;;;;;;24.60;38.70;;;;;;5118219;27;19927;-63
2023/11/13 14:17:45;;;;;;;;;;;24.60;38.90;;;;;;5109377;27;20050;-66
2023/11/13 14:20:16;;;;;;;;;;;24.60;38.90;;;;;;5107498;27;20430;-60
2023/11/13 14:22:46;;;;;;;;;;;24.60;38.90;;;;;;5108152;27;19992;-62
2023/11/13 14:25:20;;;;;;;;;;;24.60;38.90;;;;;;5106303;27;20011;-62